sensor_id;sensor_type;location;lat;lon;timestamp;P1;durP1;ratioP1;P2;durP2;ratioP2
19167;SDS011;9716;53.114;18.040;2022-10-01T00:02:12;21.58;;;9.95;;
19167;SDS011;9716;53.114;18.040;2022-10-01T00:04:40;22.75;;;9.40;;
19167;SDS011;9716;53.114;18.040;2022-10-01T00:07:09;20.42;;;10.13;;
19167;SDS011;9716;53.114;18.040;2022-10-01T00:09:42;18.92;;;10.38;;
19167;SDS011;9716;53.114;18.040;2022-10-01T00:12:11;23.90;;;10.63;;
19167;SDS011;9716;53.114;18.040;2022-10-01T00:14:42;20.90;;;10.07;;
19167;SDS011;9716;53.114;18.040;2022-10-01T00:17:10;19.52;;;9.30;;
19167;SDS011;9716;53.114;18.040;2022-10-01T00:19:39;17.92;;;9.20;;
19167;SDS011;9716;53.114;18.040;2022-10-01T00:22:07;19.20;;;10.18;;
19167;SDS011;9716;53.114;18.040;2022-10-01T00:24:36;23.33;;;10.30;;
19167;SDS011;9716;53.114;18.040;2022-10-01T00:27:06;25.52;;;9.05;;
19167;SDS011;9716;53.114;18.040;2022-10-01T00:29:36;27.02;;;9.65;;
19167;SDS011;9716;53.114;18.040;2022-10-01T00:32:04;19.92;;;9.55;;
19167;SDS011;9716;53.114;18.040;2022-10-01T00:34:35;24.65;;;11.45;;
19167;SDS011;9716;53.114;18.040;2022-10-01T00:37:04;24.40;;;9.90;;
19167;SDS011;9716;53.114;18.040;2022-10-01T00:39:35;22.45;;;9.65;;
19167;SDS011;9716;53.114;18.040;2022-10-01T00:42:14;20.80;;;9.98;;
19167;SDS011;9716;53.114;18.040;2022-10-01T00:44:44;21.17;;;9.80;;
19167;SDS011;9716;53.114;18.040;2022-10-01T00:47:17;29.77;;;10.27;;
19167;SDS011;9716;53.114;18.040;2022-10-01T00:49:55;21.52;;;9.32;;
19167;SDS011;9716;53.114;18.040;2022-10-01T00:52:29;16.27;;;9.60;;
19167;SDS011;9716;53.114;18.040;2022-10-01T00:55:01;15.88;;;9.13;;
19167;SDS011;9716;53.114;18.040;2022-10-01T00:57:35;19.63;;;10.30;;
19167;SDS011;9716;53.114;18.040;2022-10-01T01:00:05;24.67;;;10.38;;
19167;SDS011;9716;53.114;18.040;2022-10-01T01:02:36;19.25;;;9.65;;
19167;SDS011;9716;53.114;18.040;2022-10-01T01:05:04;25.40;;;10.80;;
19167;SDS011;9716;53.114;18.040;2022-10-01T01:07:34;22.95;;;10.43;;
19167;SDS011;9716;53.114;18.040;2022-10-01T01:10:07;22.77;;;10.02;;
19167;SDS011;9716;53.114;18.040;2022-10-01T01:12:41;19.75;;;10.05;;
19167;SDS011;9716;53.114;18.040;2022-10-01T01:15:24;18.15;;;9.32;;
19167;SDS011;9716;53.114;18.040;2022-10-01T01:17:59;17.88;;;9.40;;
19167;SDS011;9716;53.114;18.040;2022-10-01T01:20:55;20.33;;;9.82;;
19167;SDS011;9716;53.114;18.040;2022-10-01T01:26:59;17.10;;;10.13;;
19167;SDS011;9716;53.114;18.040;2022-10-01T01:29:37;20.75;;;9.88;;
19167;SDS011;9716;53.114;18.040;2022-10-01T01:32:11;22.65;;;10.30;;
19167;SDS011;9716;53.114;18.040;2022-10-01T01:34:44;15.02;;;9.75;;
19167;SDS011;9716;53.114;18.040;2022-10-01T01:37:16;19.48;;;9.68;;
19167;SDS011;9716;53.114;18.040;2022-10-01T01:39:46;20.55;;;10.13;;
19167;SDS011;9716;53.114;18.040;2022-10-01T01:42:19;27.70;;;10.32;;
19167;SDS011;9716;53.114;18.040;2022-10-01T01:44:54;26.95;;;10.52;;
19167;SDS011;9716;53.114;18.040;2022-10-01T01:47:25;27.67;;;13.48;;
19167;SDS011;9716;53.114;18.040;2022-10-01T01:49:58;24.95;;;10.57;;
19167;SDS011;9716;53.114;18.040;2022-10-01T01:52:29;22.98;;;11.02;;
19167;SDS011;9716;53.114;18.040;2022-10-01T01:54:59;23.45;;;11.13;;
19167;SDS011;9716;53.114;18.040;2022-10-01T01:57:35;29.30;;;12.55;;
19167;SDS011;9716;53.114;18.040;2022-10-01T02:00:08;21.00;;;10.93;;
19167;SDS011;9716;53.114;18.040;2022-10-01T02:02:39;29.30;;;13.45;;
19167;SDS011;9716;53.114;18.040;2022-10-01T02:05:11;24.88;;;11.63;;
19167;SDS011;9716;53.114;18.040;2022-10-01T02:11:00;26.30;;;12.10;;
19167;SDS011;9716;53.114;18.040;2022-10-01T02:13:45;24.92;;;12.25;;
19167;SDS011;9716;53.114;18.040;2022-10-01T02:16:23;23.50;;;11.85;;
19167;SDS011;9716;53.114;18.040;2022-10-01T02:18:58;26.77;;;11.50;;
19167;SDS011;9716;53.114;18.040;2022-10-01T02:21:33;24.95;;;12.57;;
19167;SDS011;9716;53.114;18.040;2022-10-01T02:24:08;29.05;;;13.10;;
19167;SDS011;9716;53.114;18.040;2022-10-01T02:26:40;29.92;;;14.35;;
19167;SDS011;9716;53.114;18.040;2022-10-01T02:29:12;28.58;;;14.93;;
19167;SDS011;9716;53.114;18.040;2022-10-01T02:31:46;42.40;;;15.10;;
19167;SDS011;9716;53.114;18.040;2022-10-01T02:34:19;47.08;;;14.68;;
19167;SDS011;9716;53.114;18.040;2022-10-01T02:36:51;32.85;;;14.48;;
19167;SDS011;9716;53.114;18.040;2022-10-01T02:39:22;36.28;;;15.45;;
19167;SDS011;9716;53.114;18.040;2022-10-01T02:41:54;34.25;;;14.88;;
19167;SDS011;9716;53.114;18.040;2022-10-01T02:44:27;32.20;;;14.15;;
19167;SDS011;9716;53.114;18.040;2022-10-01T02:47:07;35.75;;;13.48;;
19167;SDS011;9716;53.114;18.040;2022-10-01T02:49:39;35.28;;;13.73;;
19167;SDS011;9716;53.114;18.040;2022-10-01T02:52:08;43.10;;;15.07;;
19167;SDS011;9716;53.114;18.040;2022-10-01T02:54:44;28.92;;;13.13;;
19167;SDS011;9716;53.114;18.040;2022-10-01T02:57:17;33.15;;;13.43;;
19167;SDS011;9716;53.114;18.040;2022-10-01T02:59:54;35.05;;;14.10;;
19167;SDS011;9716;53.114;18.040;2022-10-01T03:02:27;32.75;;;13.73;;
19167;SDS011;9716;53.114;18.040;2022-10-01T03:04:57;40.47;;;13.13;;
19167;SDS011;9716;53.114;18.040;2022-10-01T03:07:27;36.47;;;14.40;;
19167;SDS011;9716;53.114;18.040;2022-10-01T03:09:57;33.08;;;14.40;;
19167;SDS011;9716;53.114;18.040;2022-10-01T03:12:25;31.23;;;13.93;;
19167;SDS011;9716;53.114;18.040;2022-10-01T03:14:54;39.13;;;14.90;;
19167;SDS011;9716;53.114;18.040;2022-10-01T03:17:23;31.02;;;13.85;;
19167;SDS011;9716;53.114;18.040;2022-10-01T03:19:53;37.40;;;14.05;;
19167;SDS011;9716;53.114;18.040;2022-10-01T03:22:22;36.22;;;14.57;;
19167;SDS011;9716;53.114;18.040;2022-10-01T03:24:51;35.58;;;13.55;;
19167;SDS011;9716;53.114;18.040;2022-10-01T03:27:20;32.38;;;12.70;;
19167;SDS011;9716;53.114;18.040;2022-10-01T03:29:49;36.45;;;13.88;;
19167;SDS011;9716;53.114;18.040;2022-10-01T03:32:18;28.98;;;12.45;;
19167;SDS011;9716;53.114;18.040;2022-10-01T03:34:47;35.72;;;14.35;;
19167;SDS011;9716;53.114;18.040;2022-10-01T03:37:17;27.33;;;14.20;;
19167;SDS011;9716;53.114;18.040;2022-10-01T03:39:45;38.50;;;13.25;;
19167;SDS011;9716;53.114;18.040;2022-10-01T03:42:14;34.47;;;12.05;;
19167;SDS011;9716;53.114;18.040;2022-10-01T03:44:43;25.05;;;11.90;;
19167;SDS011;9716;53.114;18.040;2022-10-01T03:47:11;27.25;;;13.07;;
19167;SDS011;9716;53.114;18.040;2022-10-01T03:49:40;25.90;;;11.77;;
19167;SDS011;9716;53.114;18.040;2022-10-01T03:52:08;25.15;;;11.73;;
19167;SDS011;9716;53.114;18.040;2022-10-01T03:54:38;28.02;;;12.27;;
19167;SDS011;9716;53.114;18.040;2022-10-01T03:57:07;24.17;;;12.50;;
19167;SDS011;9716;53.114;18.040;2022-10-01T03:59:35;28.85;;;13.13;;
19167;SDS011;9716;53.114;18.040;2022-10-01T04:02:04;26.63;;;10.82;;
19167;SDS011;9716;53.114;18.040;2022-10-01T04:04:34;20.58;;;10.93;;
19167;SDS011;9716;53.114;18.040;2022-10-01T04:07:03;26.05;;;12.23;;
19167;SDS011;9716;53.114;18.040;2022-10-01T04:09:31;36.55;;;12.40;;
19167;SDS011;9716;53.114;18.040;2022-10-01T04:12:01;26.88;;;12.80;;
19167;SDS011;9716;53.114;18.040;2022-10-01T04:14:30;24.20;;;11.30;;
19167;SDS011;9716;53.114;18.040;2022-10-01T04:16:59;21.13;;;11.30;;
19167;SDS011;9716;53.114;18.040;2022-10-01T04:19:27;23.17;;;12.35;;
19167;SDS011;9716;53.114;18.040;2022-10-01T04:21:56;22.35;;;11.00;;
19167;SDS011;9716;53.114;18.040;2022-10-01T04:24:25;28.33;;;13.05;;
19167;SDS011;9716;53.114;18.040;2022-10-01T04:26:53;26.90;;;12.65;;
19167;SDS011;9716;53.114;18.040;2022-10-01T04:29:23;30.50;;;13.32;;
19167;SDS011;9716;53.114;18.040;2022-10-01T04:31:52;26.27;;;11.88;;
19167;SDS011;9716;53.114;18.040;2022-10-01T04:34:21;31.80;;;13.93;;
19167;SDS011;9716;53.114;18.040;2022-10-01T04:37:10;29.42;;;12.23;;
19167;SDS011;9716;53.114;18.040;2022-10-01T04:39:38;22.35;;;11.35;;
19167;SDS011;9716;53.114;18.040;2022-10-01T04:42:07;25.38;;;12.60;;
19167;SDS011;9716;53.114;18.040;2022-10-01T04:44:37;27.98;;;13.07;;
19167;SDS011;9716;53.114;18.040;2022-10-01T04:47:05;25.15;;;12.77;;
19167;SDS011;9716;53.114;18.040;2022-10-01T04:49:34;27.80;;;12.75;;
19167;SDS011;9716;53.114;18.040;2022-10-01T04:52:03;30.38;;;13.02;;
19167;SDS011;9716;53.114;18.040;2022-10-01T04:54:32;27.90;;;12.13;;
19167;SDS011;9716;53.114;18.040;2022-10-01T04:57:00;32.53;;;12.30;;
19167;SDS011;9716;53.114;18.040;2022-10-01T04:59:29;24.20;;;12.55;;
19167;SDS011;9716;53.114;18.040;2022-10-01T05:02:00;28.08;;;13.13;;
19167;SDS011;9716;53.114;18.040;2022-10-01T05:04:28;28.08;;;12.07;;
19167;SDS011;9716;53.114;18.040;2022-10-01T05:06:57;26.75;;;13.48;;
19167;SDS011;9716;53.114;18.040;2022-10-01T05:09:25;28.35;;;12.88;;
19167;SDS011;9716;53.114;18.040;2022-10-01T05:11:54;29.17;;;13.63;;
19167;SDS011;9716;53.114;18.040;2022-10-01T05:14:23;26.73;;;12.70;;
19167;SDS011;9716;53.114;18.040;2022-10-01T05:16:53;22.77;;;12.38;;
19167;SDS011;9716;53.114;18.040;2022-10-01T05:19:23;28.75;;;13.98;;
19167;SDS011;9716;53.114;18.040;2022-10-01T05:21:54;25.80;;;12.70;;
19167;SDS011;9716;53.114;18.040;2022-10-01T05:24:23;30.73;;;13.70;;
19167;SDS011;9716;53.114;18.040;2022-10-01T05:26:52;25.38;;;13.30;;
19167;SDS011;9716;53.114;18.040;2022-10-01T05:29:20;38.45;;;13.70;;
19167;SDS011;9716;53.114;18.040;2022-10-01T05:31:49;27.15;;;14.40;;
19167;SDS011;9716;53.114;18.040;2022-10-01T05:34:17;30.38;;;14.50;;
19167;SDS011;9716;53.114;18.040;2022-10-01T05:36:47;28.85;;;13.20;;
19167;SDS011;9716;53.114;18.040;2022-10-01T05:39:16;26.00;;;14.45;;
19167;SDS011;9716;53.114;18.040;2022-10-01T05:41:44;27.55;;;14.52;;
19167;SDS011;9716;53.114;18.040;2022-10-01T05:44:13;28.42;;;14.52;;
19167;SDS011;9716;53.114;18.040;2022-10-01T05:46:42;27.50;;;14.48;;
19167;SDS011;9716;53.114;18.040;2022-10-01T05:49:10;29.48;;;16.00;;
19167;SDS011;9716;53.114;18.040;2022-10-01T05:51:38;36.17;;;16.15;;
19167;SDS011;9716;53.114;18.040;2022-10-01T05:54:08;40.10;;;16.58;;
19167;SDS011;9716;53.114;18.040;2022-10-01T05:56:37;32.15;;;17.15;;
19167;SDS011;9716;53.114;18.040;2022-10-01T05:59:06;28.70;;;14.45;;
19167;SDS011;9716;53.114;18.040;2022-10-01T06:01:34;28.15;;;15.55;;
19167;SDS011;9716;53.114;18.040;2022-10-01T06:04:03;29.75;;;15.10;;
19167;SDS011;9716;53.114;18.040;2022-10-01T06:06:32;30.45;;;16.17;;
19167;SDS011;9716;53.114;18.040;2022-10-01T06:09:00;29.50;;;16.25;;
19167;SDS011;9716;53.114;18.040;2022-10-01T06:11:30;36.70;;;16.90;;
19167;SDS011;9716;53.114;18.040;2022-10-01T06:14:02;39.05;;;17.73;;
19167;SDS011;9716;53.114;18.040;2022-10-01T06:16:31;42.90;;;18.92;;
19167;SDS011;9716;53.114;18.040;2022-10-01T06:19:00;39.45;;;18.50;;
19167;SDS011;9716;53.114;18.040;2022-10-01T06:21:28;36.65;;;17.02;;
19167;SDS011;9716;53.114;18.040;2022-10-01T06:23:58;46.85;;;18.30;;
19167;SDS011;9716;53.114;18.040;2022-10-01T06:26:26;35.85;;;19.05;;
19167;SDS011;9716;53.114;18.040;2022-10-01T06:28:56;42.50;;;18.75;;
19167;SDS011;9716;53.114;18.040;2022-10-01T06:31:25;36.67;;;17.38;;
19167;SDS011;9716;53.114;18.040;2022-10-01T06:33:54;31.02;;;17.25;;
19167;SDS011;9716;53.114;18.040;2022-10-01T06:36:22;33.38;;;17.05;;
19167;SDS011;9716;53.114;18.040;2022-10-01T06:38:51;38.30;;;16.52;;
19167;SDS011;9716;53.114;18.040;2022-10-01T06:41:19;39.38;;;16.23;;
19167;SDS011;9716;53.114;18.040;2022-10-01T06:43:47;29.50;;;16.08;;
19167;SDS011;9716;53.114;18.040;2022-10-01T06:46:18;35.92;;;15.63;;
19167;SDS011;9716;53.114;18.040;2022-10-01T06:48:46;29.30;;;15.57;;
19167;SDS011;9716;53.114;18.040;2022-10-01T06:51:15;29.73;;;14.18;;
19167;SDS011;9716;53.114;18.040;2022-10-01T06:54:04;22.67;;;13.70;;
19167;SDS011;9716;53.114;18.040;2022-10-01T06:56:33;35.78;;;13.73;;
19167;SDS011;9716;53.114;18.040;2022-10-01T06:59:02;30.27;;;14.77;;
19167;SDS011;9716;53.114;18.040;2022-10-01T07:01:32;30.90;;;14.70;;
19167;SDS011;9716;53.114;18.040;2022-10-01T07:04:04;27.83;;;14.65;;
19167;SDS011;9716;53.114;18.040;2022-10-01T07:06:32;29.08;;;14.18;;
19167;SDS011;9716;53.114;18.040;2022-10-01T07:09:01;24.75;;;12.45;;
19167;SDS011;9716;53.114;18.040;2022-10-01T07:11:30;18.25;;;12.23;;
19167;SDS011;9716;53.114;18.040;2022-10-01T07:13:59;23.10;;;11.65;;
19167;SDS011;9716;53.114;18.040;2022-10-01T07:16:27;24.13;;;11.27;;
19167;SDS011;9716;53.114;18.040;2022-10-01T07:18:57;21.17;;;10.93;;
19167;SDS011;9716;53.114;18.040;2022-10-01T07:21:26;27.35;;;11.30;;
19167;SDS011;9716;53.114;18.040;2022-10-01T07:23:54;23.73;;;10.35;;
19167;SDS011;9716;53.114;18.040;2022-10-01T07:26:22;20.65;;;11.10;;
19167;SDS011;9716;53.114;18.040;2022-10-01T07:28:51;18.50;;;10.25;;
19167;SDS011;9716;53.114;18.040;2022-10-01T07:31:20;20.13;;;9.63;;
19167;SDS011;9716;53.114;18.040;2022-10-01T07:33:55;21.90;;;10.45;;
19167;SDS011;9716;53.114;18.040;2022-10-01T07:36:26;15.82;;;9.20;;
19167;SDS011;9716;53.114;18.040;2022-10-01T07:38:55;16.67;;;9.30;;
19167;SDS011;9716;53.114;18.040;2022-10-01T07:41:24;18.23;;;9.52;;
19167;SDS011;9716;53.114;18.040;2022-10-01T07:43:53;19.98;;;9.48;;
19167;SDS011;9716;53.114;18.040;2022-10-01T07:46:22;15.18;;;9.05;;
19167;SDS011;9716;53.114;18.040;2022-10-01T07:48:50;16.38;;;8.88;;
19167;SDS011;9716;53.114;18.040;2022-10-01T07:51:19;16.00;;;8.57;;
19167;SDS011;9716;53.114;18.040;2022-10-01T07:53:48;17.90;;;8.50;;
19167;SDS011;9716;53.114;18.040;2022-10-01T07:56:17;19.02;;;9.13;;
19167;SDS011;9716;53.114;18.040;2022-10-01T07:58:46;17.88;;;8.30;;
19167;SDS011;9716;53.114;18.040;2022-10-01T08:01:14;15.27;;;8.30;;
19167;SDS011;9716;53.114;18.040;2022-10-01T08:03:43;12.65;;;7.57;;
19167;SDS011;9716;53.114;18.040;2022-10-01T08:06:15;19.20;;;7.85;;
19167;SDS011;9716;53.114;18.040;2022-10-01T08:08:52;20.10;;;9.07;;
19167;SDS011;9716;53.114;18.040;2022-10-01T08:11:20;12.38;;;6.97;;
19167;SDS011;9716;53.114;18.040;2022-10-01T08:13:50;16.15;;;8.90;;
19167;SDS011;9716;53.114;18.040;2022-10-01T08:16:21;13.80;;;7.72;;
19167;SDS011;9716;53.114;18.040;2022-10-01T08:18:54;19.58;;;7.15;;
19167;SDS011;9716;53.114;18.040;2022-10-01T08:21:23;17.88;;;7.82;;
19167;SDS011;9716;53.114;18.040;2022-10-01T08:23:53;13.90;;;7.05;;
19167;SDS011;9716;53.114;18.040;2022-10-01T08:26:22;17.35;;;7.32;;
19167;SDS011;9716;53.114;18.040;2022-10-01T08:28:50;22.77;;;6.63;;
19167;SDS011;9716;53.114;18.040;2022-10-01T08:31:19;17.80;;;8.43;;
19167;SDS011;9716;53.114;18.040;2022-10-01T08:33:48;18.30;;;8.68;;
19167;SDS011;9716;53.114;18.040;2022-10-01T08:36:16;11.00;;;6.57;;
19167;SDS011;9716;53.114;18.040;2022-10-01T08:38:46;14.93;;;6.97;;
19167;SDS011;9716;53.114;18.040;2022-10-01T08:41:19;13.27;;;6.18;;
19167;SDS011;9716;53.114;18.040;2022-10-01T08:43:56;10.50;;;5.70;;
19167;SDS011;9716;53.114;18.040;2022-10-01T08:46:29;12.35;;;6.15;;
19167;SDS011;9716;53.114;18.040;2022-10-01T08:49:03;12.88;;;6.05;;
19167;SDS011;9716;53.114;18.040;2022-10-01T08:51:42;9.73;;;5.63;;
19167;SDS011;9716;53.114;18.040;2022-10-01T08:54:18;14.13;;;6.10;;
19167;SDS011;9716;53.114;18.040;2022-10-01T08:57:00;13.20;;;6.60;;
19167;SDS011;9716;53.114;18.040;2022-10-01T08:59:38;12.13;;;5.15;;
19167;SDS011;9716;53.114;18.040;2022-10-01T09:02:18;11.10;;;5.40;;
19167;SDS011;9716;53.114;18.040;2022-10-01T09:04:50;12.82;;;5.68;;
19167;SDS011;9716;53.114;18.040;2022-10-01T09:07:31;9.70;;;5.03;;
19167;SDS011;9716;53.114;18.040;2022-10-01T09:10:16;8.35;;;5.32;;
19167;SDS011;9716;53.114;18.040;2022-10-01T09:13:02;17.52;;;6.22;;
19167;SDS011;9716;53.114;18.040;2022-10-01T09:15:42;7.05;;;4.40;;
19167;SDS011;9716;53.114;18.040;2022-10-01T09:18:20;11.23;;;5.28;;
19167;SDS011;9716;53.114;18.040;2022-10-01T09:20:58;9.10;;;4.90;;
19167;SDS011;9716;53.114;18.040;2022-10-01T09:23:28;11.43;;;4.75;;
19167;SDS011;9716;53.114;18.040;2022-10-01T09:25:58;10.20;;;5.10;;
19167;SDS011;9716;53.114;18.040;2022-10-01T09:28:28;7.88;;;4.75;;
19167;SDS011;9716;53.114;18.040;2022-10-01T09:30:59;10.25;;;4.85;;
19167;SDS011;9716;53.114;18.040;2022-10-01T09:33:34;9.30;;;5.47;;
19167;SDS011;9716;53.114;18.040;2022-10-01T09:36:06;11.48;;;5.80;;
19167;SDS011;9716;53.114;18.040;2022-10-01T09:38:43;9.90;;;4.93;;
19167;SDS011;9716;53.114;18.040;2022-10-01T09:41:15;11.73;;;4.25;;
19167;SDS011;9716;53.114;18.040;2022-10-01T09:43:45;8.25;;;4.93;;
19167;SDS011;9716;53.114;18.040;2022-10-01T09:46:14;10.02;;;6.00;;
19167;SDS011;9716;53.114;18.040;2022-10-01T09:48:46;10.63;;;4.97;;
19167;SDS011;9716;53.114;18.040;2022-10-01T09:51:22;8.20;;;4.90;;
19167;SDS011;9716;53.114;18.040;2022-10-01T09:54:02;11.43;;;4.75;;
19167;SDS011;9716;53.114;18.040;2022-10-01T09:56:36;10.55;;;5.47;;
19167;SDS011;9716;53.114;18.040;2022-10-01T09:59:12;19.20;;;6.35;;
19167;SDS011;9716;53.114;18.040;2022-10-01T10:01:45;10.70;;;5.97;;
19167;SDS011;9716;53.114;18.040;2022-10-01T10:04:17;11.35;;;6.30;;
19167;SDS011;9716;53.114;18.040;2022-10-01T10:06:49;11.98;;;6.07;;
19167;SDS011;9716;53.114;18.040;2022-10-01T10:09:21;19.50;;;7.53;;
19167;SDS011;9716;53.114;18.040;2022-10-01T10:11:56;15.95;;;6.80;;
19167;SDS011;9716;53.114;18.040;2022-10-01T10:14:28;9.13;;;4.88;;
19167;SDS011;9716;53.114;18.040;2022-10-01T10:17:01;12.18;;;5.45;;
19167;SDS011;9716;53.114;18.040;2022-10-01T10:19:32;9.05;;;4.82;;
19167;SDS011;9716;53.114;18.040;2022-10-01T10:22:08;11.25;;;4.95;;
19167;SDS011;9716;53.114;18.040;2022-10-01T10:24:38;13.75;;;5.35;;
19167;SDS011;9716;53.114;18.040;2022-10-01T10:27:18;14.43;;;5.43;;
19167;SDS011;9716;53.114;18.040;2022-10-01T10:30:01;15.25;;;4.82;;
19167;SDS011;9716;53.114;18.040;2022-10-01T10:32:32;9.65;;;4.63;;
19167;SDS011;9716;53.114;18.040;2022-10-01T10:35:01;11.75;;;3.67;;
19167;SDS011;9716;53.114;18.040;2022-10-01T10:37:33;7.93;;;3.67;;
19167;SDS011;9716;53.114;18.040;2022-10-01T10:40:04;10.13;;;3.83;;
19167;SDS011;9716;53.114;18.040;2022-10-01T10:42:34;12.13;;;6.78;;
19167;SDS011;9716;53.114;18.040;2022-10-01T10:45:13;15.13;;;6.40;;
19167;SDS011;9716;53.114;18.040;2022-10-01T10:47:46;8.52;;;3.80;;
19167;SDS011;9716;53.114;18.040;2022-10-01T10:50:25;9.48;;;4.30;;
19167;SDS011;9716;53.114;18.040;2022-10-01T10:52:58;7.25;;;3.83;;
19167;SDS011;9716;53.114;18.040;2022-10-01T10:55:38;5.85;;;3.38;;
19167;SDS011;9716;53.114;18.040;2022-10-01T10:58:08;4.50;;;3.20;;
19167;SDS011;9716;53.114;18.040;2022-10-01T11:00:43;10.65;;;3.80;;
19167;SDS011;9716;53.114;18.040;2022-10-01T11:03:16;7.57;;;3.47;;
19167;SDS011;9716;53.114;18.040;2022-10-01T11:05:48;9.65;;;3.80;;
19167;SDS011;9716;53.114;18.040;2022-10-01T11:08:18;6.07;;;3.53;;
19167;SDS011;9716;53.114;18.040;2022-10-01T11:10:54;5.82;;;3.22;;
19167;SDS011;9716;53.114;18.040;2022-10-01T11:13:38;6.38;;;3.35;;
19167;SDS011;9716;53.114;18.040;2022-10-01T11:16:24;5.78;;;3.60;;
19167;SDS011;9716;53.114;18.040;2022-10-01T11:19:06;5.20;;;3.40;;
19167;SDS011;9716;53.114;18.040;2022-10-01T11:21:55;8.60;;;3.90;;
19167;SDS011;9716;53.114;18.040;2022-10-01T11:24:41;5.25;;;3.65;;
19167;SDS011;9716;53.114;18.040;2022-10-01T11:27:24;5.05;;;2.97;;
19167;SDS011;9716;53.114;18.040;2022-10-01T11:30:03;4.63;;;3.38;;
19167;SDS011;9716;53.114;18.040;2022-10-01T11:32:38;6.43;;;3.72;;
19167;SDS011;9716;53.114;18.040;2022-10-01T11:35:15;10.77;;;3.63;;
19167;SDS011;9716;53.114;18.040;2022-10-01T11:38:10;5.80;;;3.45;;
19167;SDS011;9716;53.114;18.040;2022-10-01T11:40:59;10.80;;;4.10;;
19167;SDS011;9716;53.114;18.040;2022-10-01T11:43:35;6.30;;;3.10;;
19167;SDS011;9716;53.114;18.040;2022-10-01T11:46:08;7.15;;;3.63;;
19167;SDS011;9716;53.114;18.040;2022-10-01T11:48:44;9.23;;;4.15;;
19167;SDS011;9716;53.114;18.040;2022-10-01T11:51:18;7.47;;;3.78;;
19167;SDS011;9716;53.114;18.040;2022-10-01T11:53:52;5.38;;;3.45;;
19167;SDS011;9716;53.114;18.040;2022-10-01T11:56:26;5.28;;;4.25;;
19167;SDS011;9716;53.114;18.040;2022-10-01T11:59:16;8.07;;;3.45;;
19167;SDS011;9716;53.114;18.040;2022-10-01T12:01:50;6.75;;;3.63;;
19167;SDS011;9716;53.114;18.040;2022-10-01T12:04:28;8.02;;;4.70;;
19167;SDS011;9716;53.114;18.040;2022-10-01T12:07:02;7.32;;;3.97;;
19167;SDS011;9716;53.114;18.040;2022-10-01T12:09:40;11.15;;;5.22;;
19167;SDS011;9716;53.114;18.040;2022-10-01T12:12:16;6.30;;;4.32;;
19167;SDS011;9716;53.114;18.040;2022-10-01T12:14:49;8.45;;;4.47;;
19167;SDS011;9716;53.114;18.040;2022-10-01T12:17:22;9.57;;;4.57;;
19167;SDS011;9716;53.114;18.040;2022-10-01T12:19:56;7.65;;;4.65;;
19167;SDS011;9716;53.114;18.040;2022-10-01T12:22:28;10.32;;;5.07;;
19167;SDS011;9716;53.114;18.040;2022-10-01T12:25:00;11.60;;;5.43;;
19167;SDS011;9716;53.114;18.040;2022-10-01T12:27:34;10.45;;;5.55;;
19167;SDS011;9716;53.114;18.040;2022-10-01T12:30:23;7.75;;;4.80;;
19167;SDS011;9716;53.114;18.040;2022-10-01T12:36:01;9.65;;;5.80;;
19167;SDS011;9716;53.114;18.040;2022-10-01T12:38:42;9.15;;;5.80;;
19167;SDS011;9716;53.114;18.040;2022-10-01T12:41:21;13.35;;;5.82;;
19167;SDS011;9716;53.114;18.040;2022-10-01T12:44:06;8.45;;;4.93;;
19167;SDS011;9716;53.114;18.040;2022-10-01T12:46:58;9.98;;;5.90;;
19167;SDS011;9716;53.114;18.040;2022-10-01T12:49:36;12.35;;;5.65;;
19167;SDS011;9716;53.114;18.040;2022-10-01T12:52:13;7.72;;;5.03;;
19167;SDS011;9716;53.114;18.040;2022-10-01T12:54:53;9.27;;;5.30;;
19167;SDS011;9716;53.114;18.040;2022-10-01T12:57:46;9.05;;;5.18;;
19167;SDS011;9716;53.114;18.040;2022-10-01T13:00:24;13.40;;;7.50;;
19167;SDS011;9716;53.114;18.040;2022-10-01T13:02:57;13.20;;;6.53;;
19167;SDS011;9716;53.114;18.040;2022-10-01T13:05:51;13.18;;;7.47;;
19167;SDS011;9716;53.114;18.040;2022-10-01T13:08:33;13.20;;;6.20;;
19167;SDS011;9716;53.114;18.040;2022-10-01T13:11:13;9.82;;;5.88;;
19167;SDS011;9716;53.114;18.040;2022-10-01T13:13:50;9.95;;;6.43;;
19167;SDS011;9716;53.114;18.040;2022-10-01T13:16:21;10.85;;;5.80;;
19167;SDS011;9716;53.114;18.040;2022-10-01T13:18:57;14.73;;;7.32;;
19167;SDS011;9716;53.114;18.040;2022-10-01T13:21:36;20.23;;;6.35;;
19167;SDS011;9716;53.114;18.040;2022-10-01T13:24:22;8.55;;;5.38;;
19167;SDS011;9716;53.114;18.040;2022-10-01T13:26:57;13.38;;;6.68;;
19167;SDS011;9716;53.114;18.040;2022-10-01T13:29:33;13.85;;;6.13;;
19167;SDS011;9716;53.114;18.040;2022-10-01T13:32:25;8.80;;;5.45;;
19167;SDS011;9716;53.114;18.040;2022-10-01T13:34:59;11.95;;;4.80;;
19167;SDS011;9716;53.114;18.040;2022-10-01T13:37:31;12.70;;;5.82;;
19167;SDS011;9716;53.114;18.040;2022-10-01T13:40:20;10.55;;;6.03;;
19167;SDS011;9716;53.114;18.040;2022-10-01T13:42:52;10.25;;;5.88;;
19167;SDS011;9716;53.114;18.040;2022-10-01T13:45:27;10.60;;;5.40;;
19167;SDS011;9716;53.114;18.040;2022-10-01T13:48:06;12.88;;;6.20;;
19167;SDS011;9716;53.114;18.040;2022-10-01T13:50:51;9.23;;;5.30;;
19167;SDS011;9716;53.114;18.040;2022-10-01T13:53:29;10.10;;;5.60;;
19167;SDS011;9716;53.114;18.040;2022-10-01T13:56:01;16.30;;;6.28;;
19167;SDS011;9716;53.114;18.040;2022-10-01T13:58:33;11.45;;;5.78;;
19167;SDS011;9716;53.114;18.040;2022-10-01T14:01:05;11.45;;;6.28;;
19167;SDS011;9716;53.114;18.040;2022-10-01T14:03:55;14.68;;;6.70;;
19167;SDS011;9716;53.114;18.040;2022-10-01T14:06:30;11.35;;;6.13;;
19167;SDS011;9716;53.114;18.040;2022-10-01T14:09:05;10.18;;;5.85;;
19167;SDS011;9716;53.114;18.040;2022-10-01T14:11:43;12.02;;;6.30;;
19167;SDS011;9716;53.114;18.040;2022-10-01T14:14:33;13.13;;;7.53;;
19167;SDS011;9716;53.114;18.040;2022-10-01T14:17:21;10.10;;;5.85;;
19167;SDS011;9716;53.114;18.040;2022-10-01T14:19:53;13.05;;;6.55;;
19167;SDS011;9716;53.114;18.040;2022-10-01T14:22:32;14.88;;;6.28;;
19167;SDS011;9716;53.114;18.040;2022-10-01T14:25:12;15.00;;;7.65;;
19167;SDS011;9716;53.114;18.040;2022-10-01T14:28:05;12.88;;;7.72;;
19167;SDS011;9716;53.114;18.040;2022-10-01T14:30:44;12.95;;;6.82;;
19167;SDS011;9716;53.114;18.040;2022-10-01T14:33:32;15.10;;;7.30;;
19167;SDS011;9716;53.114;18.040;2022-10-01T14:36:11;13.15;;;6.70;;
19167;SDS011;9716;53.114;18.040;2022-10-01T14:38:43;11.35;;;6.28;;
19167;SDS011;9716;53.114;18.040;2022-10-01T14:41:16;13.00;;;6.70;;
19167;SDS011;9716;53.114;18.040;2022-10-01T14:43:47;18.15;;;6.72;;
19167;SDS011;9716;53.114;18.040;2022-10-01T14:46:16;9.85;;;5.85;;
19167;SDS011;9716;53.114;18.040;2022-10-01T14:48:54;14.73;;;7.68;;
19167;SDS011;9716;53.114;18.040;2022-10-01T14:51:25;13.90;;;6.60;;
19167;SDS011;9716;53.114;18.040;2022-10-01T14:53:56;12.02;;;7.35;;
19167;SDS011;9716;53.114;18.040;2022-10-01T14:56:27;16.13;;;7.10;;
19167;SDS011;9716;53.114;18.040;2022-10-01T14:58:58;12.10;;;6.93;;
19167;SDS011;9716;53.114;18.040;2022-10-01T15:01:31;12.35;;;6.50;;
19167;SDS011;9716;53.114;18.040;2022-10-01T15:04:00;14.02;;;6.88;;
19167;SDS011;9716;53.114;18.040;2022-10-01T15:06:29;14.38;;;7.22;;
19167;SDS011;9716;53.114;18.040;2022-10-01T15:09:10;17.17;;;7.93;;
19167;SDS011;9716;53.114;18.040;2022-10-01T15:11:44;10.32;;;6.68;;
19167;SDS011;9716;53.114;18.040;2022-10-01T15:14:18;17.33;;;6.80;;
19167;SDS011;9716;53.114;18.040;2022-10-01T15:16:49;16.10;;;7.18;;